Time;durP1;ratioP1;P1;durP2;ratioP2;P2;SDS_P1;SDS_P2;PMS_P1;PMS_P2;Temp;Humidity;BMP_temperature;BMP_pressure;BME280_temperature;BME280_humidity;BME280_pressure;Samples;Min_cycle;Max_cycle;Signal;HPM_P1;HPM_P2
2023/05/28 00:00:06;;;;;;;2.15;1.27;;;23.90;46.80;;;;;;5030686;28;20524;-63
2023/05/28 00:02:33;;;;;;;1.98;1.20;;;23.90;46.80;;;;;;5032512;28;20081;-64
2023/05/28 00:04:59;;;;;;;2.08;1.38;;;23.80;46.80;;;;;;5033389;28;20468;-63
2023/05/28 00:07:25;;;;;;;2.30;1.20;;;23.80;46.80;;;;;;5020391;28;20025;-64
2023/05/28 00:09:51;;;;;;;2.08;1.20;;;23.80;46.80;;;;;;5032812;28;20090;-64
2023/05/28 00:12:17;;;;;;;1.73;1.20;;;23.80;46.80;;;;;;5034097;28;20021;-64
2023/05/28 00:14:42;;;;;;;1.73;1.15;;;23.80;46.90;;;;;;5034697;28;20987;-64
2023/05/28 00:17:09;;;;;;;1.95;1.30;;;23.80;46.90;;;;;;5036336;28;20033;-64
2023/05/28 00:19:34;;;;;;;1.67;1.10;;;23.80;46.90;;;;;;5036689;28;20537;-64
2023/05/28 00:22:00;;;;;;;1.83;1.13;;;23.80;46.90;;;;;;5037377;28;20104;-64
2023/05/28 00:24:26;;;;;;;2.45;1.30;;;23.80;47.00;;;;;;5033649;28;20029;-64
2023/05/28 00:26:51;;;;;;;2.00;1.20;;;23.80;46.90;;;;;;5034365;28;20036;-63
2023/05/28 00:29:17;;;;;;;1.60;1.20;;;23.80;46.90;;;;;;5038162;28;20109;-63
2023/05/28 00:31:43;;;;;;;2.17;1.10;;;23.70;46.90;;;;;;5038101;28;20111;-64
2023/05/28 00:34:08;;;;;;;2.33;1.27;;;23.80;47.00;;;;;;5020296;28;20025;-64
2023/05/28 00:36:35;;;;;;;1.75;1.20;;;23.70;46.90;;;;;;5037569;28;20033;-64
2023/05/28 00:39:04;;;;;;;1.90;1.20;;;23.70;46.90;;;;;;5017684;28;20036;-64
2023/05/28 00:41:30;;;;;;;1.98;1.10;;;23.70;46.90;;;;;;5032226;28;20526;-64
2023/05/28 00:43:56;;;;;;;1.60;1.20;;;23.70;46.90;;;;;;5034755;28;20168;-65
2023/05/28 00:46:23;;;;;;;2.22;1.10;;;23.70;46.90;;;;;;5035932;28;20056;-64
2023/05/28 00:48:50;;;;;;;1.75;1.20;;;23.70;47.50;;;;;;5033211;28;20028;-64
2023/05/28 00:51:16;;;;;;;1.58;1.10;;;23.70;47.00;;;;;;5031253;28;20484;-64
2023/05/28 00:53:43;;;;;;;1.60;1.20;;;23.70;47.00;;;;;;5038105;28;20033;-63
2023/05/28 00:56:12;;;;;;;1.55;1.10;;;23.70;47.00;;;;;;5031679;28;20499;-63
2023/05/28 00:58:43;;;;;;;1.73;1.25;;;23.70;47.00;;;;;;5036060;28;20113;-64
2023/05/28 01:01:12;;;;;;;1.73;1.17;;;23.70;47.00;;;;;;5036714;28;20457;-64
2023/05/28 01:03:39;;;;;;;1.88;1.30;;;23.70;47.00;;;;;;5036854;28;20063;-64
2023/05/28 01:06:11;;;;;;;1.70;1.08;;;23.70;47.00;;;;;;5036854;28;20093;-63
2023/05/28 01:08:37;;;;;;;1.80;1.15;;;23.70;47.10;;;;;;5036281;28;20025;-63
2023/05/28 01:11:04;;;;;;;1.88;1.10;;;23.70;47.10;;;;;;5032781;28;20029;-65
2023/05/28 01:13:31;;;;;;;1.40;1.05;;;23.60;47.00;;;;;;5033557;28;20032;-64
2023/05/28 01:15:58;;;;;;;1.80;1.20;;;23.60;47.00;;;;;;5035579;28;20037;-64
2023/05/28 01:18:24;;;;;;;1.88;1.13;;;23.70;47.10;;;;;;5035528;28;20022;-64
2023/05/28 01:20:50;;;;;;;1.38;1.15;;;23.60;47.10;;;;;;5028222;28;20384;-64
2023/05/28 01:23:20;;;;;;;1.27;0.90;;;23.60;47.10;;;;;;5034352;28;20033;-64
2023/05/28 01:25:50;;;;;;;1.40;1.00;;;23.60;47.10;;;;;;5028767;28;20043;-64
2023/05/28 01:28:16;;;;;;;1.77;1.20;;;23.60;47.10;;;;;;5015167;28;20032;-64
2023/05/28 01:30:45;;;;;;;1.50;1.10;;;23.60;47.10;;;;;;5035593;28;20427;-64
2023/05/28 01:33:11;;;;;;;2.13;1.20;;;23.60;47.10;;;;;;5034273;28;20102;-64
2023/05/28 01:35:41;;;;;;;2.28;1.10;;;23.60;47.10;;;;;;5017740;28;20041;-64
2023/05/28 01:38:08;;;;;;;2.70;1.33;;;23.50;47.10;;;;;;5036805;28;20025;-64
2023/05/28 01:40:36;;;;;;;2.50;1.10;;;23.60;47.20;;;;;;5029421;28;20025;-64
2023/05/28 01:43:03;;;;;;;1.65;1.10;;;23.50;47.60;;;;;;5032235;28;20025;-64
2023/05/28 01:45:29;;;;;;;1.52;1.10;;;23.50;47.10;;;;;;5014906;28;20056;-63
2023/05/28 01:47:55;;;;;;;1.65;1.00;;;23.50;47.10;;;;;;5034184;28;20563;-64
2023/05/28 01:50:21;;;;;;;1.75;1.00;;;23.50;47.10;;;;;;5034618;28;20025;-64
2023/05/28 01:52:47;;;;;;;1.50;1.00;;;23.60;47.20;;;;;;5033454;28;20075;-64
2023/05/28 01:55:13;;;;;;;1.90;1.10;;;23.50;47.20;;;;;;5035192;28;20049;-64
2023/05/28 01:57:39;;;;;;;1.80;1.17;;;23.50;47.20;;;;;;5031861;28;20032;-65
2023/05/28 02:00:06;;;;;;;1.70;1.10;;;23.50;47.20;;;;;;5020184;28;20025;-63
2023/05/28 02:02:32;;;;;;;1.85;1.20;;;23.50;47.70;;;;;;5031415;28;20453;-64
2023/05/28 02:04:58;;;;;;;2.47;1.15;;;23.50;47.20;;;;;;5036326;28;20361;-64
2023/05/28 02:07:23;;;;;;;1.33;1.05;;;23.50;47.20;;;;;;5016912;28;20022;-64
2023/05/28 02:09:49;;;;;;;1.90;1.20;;;23.50;47.20;;;;;;5031288;28;20032;-64
2023/05/28 02:12:15;;;;;;;1.90;1.25;;;23.50;47.20;;;;;;5038972;28;20111;-64
2023/05/28 02:14:42;;;;;;;1.73;1.23;;;23.50;47.20;;;;;;5035000;28;20497;-63
2023/05/28 02:17:09;;;;;;;1.70;1.20;;;23.50;47.20;;;;;;5032501;28;20530;-64
2023/05/28 02:19:35;;;;;;;2.10;1.40;;;23.40;47.20;;;;;;5034769;28;20026;-64
2023/05/28 02:22:01;;;;;;;1.63;1.10;;;23.50;47.30;;;;;;5022797;28;20502;-64
2023/05/28 02:24:27;;;;;;;1.50;1.00;;;23.40;47.20;;;;;;5039609;28;20436;-64
2023/05/28 02:26:53;;;;;;;1.45;1.00;;;23.50;47.30;;;;;;5038468;28;20155;-64
2023/05/28 02:29:19;;;;;;;1.65;1.10;;;23.50;47.30;;;;;;5036574;28;20029;-64
2023/05/28 02:31:44;;;;;;;1.75;1.20;;;23.40;47.30;;;;;;5035097;28;20448;-64
2023/05/28 02:34:10;;;;;;;1.45;1.00;;;23.40;47.30;;;;;;5014190;28;20058;-64
2023/05/28 02:36:35;;;;;;;1.85;1.10;;;23.40;47.30;;;;;;5037448;28;20104;-64
2023/05/28 02:39:03;;;;;;;2.00;1.25;;;23.40;47.30;;;;;;5038052;28;20028;-64
2023/05/28 02:41:28;;;;;;;2.00;1.20;;;23.40;47.30;;;;;;5036325;28;20394;-64
2023/05/28 02:43:54;;;;;;;1.70;1.08;;;23.40;47.30;;;;;;5022638;28;20131;-64
2023/05/28 02:46:19;;;;;;;2.00;1.15;;;23.40;47.30;;;;;;5039826;28;20045;-64
2023/05/28 02:48:45;;;;;;;2.00;1.00;;;23.40;47.30;;;;;;5020708;28;20033;-64
2023/05/28 02:51:11;;;;;;;1.70;1.20;;;23.40;47.30;;;;;;5035674;28;20040;-64
2023/05/28 02:53:37;;;;;;;1.90;1.13;;;23.40;47.30;;;;;;5040742;28;20451;-64
2023/05/28 02:56:03;;;;;;;1.65;1.00;;;23.40;47.30;;;;;;5037996;28;20539;-64
2023/05/28 02:58:30;;;;;;;1.63;1.10;;;23.40;47.40;;;;;;5038762;28;20111;-64
2023/05/28 03:00:56;;;;;;;1.90;1.20;;;23.40;47.40;;;;;;5037307;28;20021;-64
2023/05/28 03:03:22;;;;;;;1.90;1.30;;;23.30;47.30;;;;;;5035138;28;20032;-64
2023/05/28 03:05:48;;;;;;;1.70;1.20;;;23.40;47.40;;;;;;5033412;28;20404;-64
2023/05/28 03:08:14;;;;;;;1.70;1.05;;;23.40;47.40;;;;;;5039064;28;20478;-64
2023/05/28 03:10:40;;;;;;;2.42;1.40;;;23.30;47.40;;;;;;5041798;28;20040;-64
2023/05/28 03:13:06;;;;;;;1.50;1.00;;;23.30;47.40;;;;;;5034441;28;20021;-65
2023/05/28 03:15:31;;;;;;;1.88;1.20;;;23.30;47.40;;;;;;5031862;28;20400;-64
2023/05/28 03:17:57;;;;;;;1.85;1.10;;;23.30;47.40;;;;;;5021804;28;20029;-64
2023/05/28 03:20:23;;;;;;;1.92;1.17;;;23.30;47.40;;;;;;5035894;28;20057;-64
2023/05/28 03:22:54;;;;;;;1.33;0.90;;;23.30;47.40;;;;;;5036903;28;20107;-64
2023/05/28 03:25:20;;;;;;;2.55;1.48;;;23.30;47.40;;;;;;5004588;28;20022;-64
2023/05/28 03:27:46;;;;;;;1.88;1.20;;;23.30;47.40;;;;;;5039011;28;20044;-64
2023/05/28 03:30:12;;;;;;;1.60;1.10;;;23.30;47.40;;;;;;5036120;28;20130;-64
2023/05/28 03:32:37;;;;;;;1.30;1.00;;;23.30;47.40;;;;;;5033484;28;20150;-64
2023/05/28 03:35:03;;;;;;;1.65;1.10;;;23.30;47.40;;;;;;5038075;28;20096;-64
2023/05/28 03:37:29;;;;;;;1.55;1.00;;;23.30;47.40;;;;;;5036752;28;20032;-64
2023/05/28 03:39:54;;;;;;;1.85;1.15;;;23.30;47.50;;;;;;5037054;28;20110;-64
2023/05/28 03:42:20;;;;;;;1.83;1.10;;;23.30;47.50;;;;;;5015800;28;20461;-64
2023/05/28 03:44:46;;;;;;;1.77;1.30;;;23.20;47.40;;;;;;5038256;28;20036;-64
2023/05/28 03:47:12;;;;;;;1.98;1.30;;;23.20;48.00;;;;;;5035192;28;20552;-64
2023/05/28 03:49:38;;;;;;;1.70;1.00;;;23.30;47.50;;;;;;5038094;28;20028;-64
2023/05/28 03:52:04;;;;;;;1.90;1.20;;;23.30;47.50;;;;;;5037053;28;20038;-64
2023/05/28 03:54:31;;;;;;;1.58;1.10;;;23.20;47.40;;;;;;5035869;28;20440;-64
2023/05/28 03:56:57;;;;;;;1.52;1.10;;;23.20;47.40;;;;;;5032151;28;20033;-64
2023/05/28 03:59:22;;;;;;;1.88;1.05;;;23.20;47.50;;;;;;5036118;28;20024;-64
2023/05/28 04:01:48;;;;;;;1.33;1.02;;;23.20;47.40;;;;;;5033914;28;20465;-64
2023/05/28 04:04:13;;;;;;;1.52;1.10;;;23.20;47.50;;;;;;5031821;28;20056;-64
2023/05/28 04:06:39;;;;;;;1.30;1.00;;;23.20;47.50;;;;;;5022731;28;20053;-64
2023/05/28 04:09:05;;;;;;;1.95;1.10;;;23.20;47.50;;;;;;5019585;28;20159;-64
2023/05/28 04:11:33;;;;;;;1.70;1.10;;;23.20;47.50;;;;;;5036352;28;20111;-63
2023/05/28 04:13:59;;;;;;;1.88;1.10;;;23.20;48.00;;;;;;5034493;28;20412;-64
2023/05/28 04:16:24;;;;;;;1.83;1.20;;;23.20;47.50;;;;;;5036050;28;20104;-64
2023/05/28 04:18:50;;;;;;;1.70;1.10;;;23.20;47.50;;;;;;5029486;28;20104;-64
2023/05/28 04:21:16;;;;;;;1.60;1.20;;;23.20;47.60;;;;;;5035701;28;20027;-64
2023/05/28 04:23:42;;;;;;;1.92;1.20;;;23.20;47.60;;;;;;5036921;28;20025;-64
2023/05/28 04:26:07;;;;;;;1.98;1.33;;;23.20;47.50;;;;;;5035818;28;20037;-64
2023/05/28 04:28:33;;;;;;;1.40;1.00;;;23.20;47.60;;;;;;5034532;28;20052;-64
2023/05/28 04:31:02;;;;;;;1.73;1.20;;;23.20;47.60;;;;;;5022696;28;20468;-64
2023/05/28 04:33:31;;;;;;;1.95;1.25;;;23.20;47.60;;;;;;5035838;28;20087;-63
2023/05/28 04:35:57;;;;;;;1.48;1.10;;;23.20;47.60;;;;;;5037772;28;20079;-64
2023/05/28 04:38:24;;;;;;;1.70;1.20;;;23.20;47.60;;;;;;5037495;28;20022;-64
2023/05/28 04:40:50;;;;;;;2.25;1.27;;;23.10;47.60;;;;;;5001460;28;20775;-63
2023/05/28 04:43:16;;;;;;;1.75;1.13;;;23.20;47.60;;;;;;5018508;28;20049;-63
2023/05/28 04:45:43;;;;;;;1.70;1.10;;;23.10;47.60;;;;;;5034963;28;20084;-63
2023/05/28 04:48:10;;;;;;;1.67;1.10;;;23.10;47.50;;;;;;5037840;28;20473;-64
2023/05/28 04:50:36;;;;;;;2.00;1.20;;;23.10;47.60;;;;;;5030055;28;20032;-64
2023/05/28 04:53:02;;;;;;;1.95;1.13;;;23.10;47.60;;;;;;5038768;28;20096;-64
2023/05/28 04:55:27;;;;;;;1.67;1.02;;;23.10;47.60;;;;;;5035161;28;20025;-64
2023/05/28 04:57:53;;;;;;;1.35;1.00;;;23.10;47.60;;;;;;5030798;28;20021;-64
2023/05/28 05:00:20;;;;;;;2.00;1.20;;;23.10;47.60;;;;;;5035924;28;20645;-63
2023/05/28 05:02:45;;;;;;;1.38;1.00;;;23.10;47.60;;;;;;5033406;28;20025;-64
2023/05/28 05:05:12;;;;;;;1.52;1.10;;;23.10;47.60;;;;;;5035794;28;20091;-64
2023/05/28 05:07:38;;;;;;;1.33;1.00;;;23.10;47.60;;;;;;5036157;28;20018;-64
2023/05/28 05:10:09;;;;;;;1.33;1.10;;;23.10;47.70;;;;;;5037271;28;20026;-64
2023/05/28 05:12:35;;;;;;;1.35;1.10;;;23.00;47.60;;;;;;5019402;28;20115;-63
2023/05/28 05:15:01;;;;;;;1.35;1.08;;;23.10;47.70;;;;;;5034973;28;20436;-64
2023/05/28 05:17:26;;;;;;;1.40;1.10;;;23.10;47.70;;;;;;5030620;28;20116;-64
2023/05/28 05:19:52;;;;;;;1.27;0.98;;;23.00;47.60;;;;;;5034863;28;20441;-63
2023/05/28 05:22:18;;;;;;;1.70;1.20;;;23.00;47.60;;;;;;5033399;28;20028;-64
2023/05/28 05:24:46;;;;;;;1.92;1.30;;;23.00;47.70;;;;;;5034837;28;20091;-63
2023/05/28 05:27:11;;;;;;;1.30;1.00;;;23.00;47.70;;;;;;5028103;28;20363;-63
2023/05/28 05:29:37;;;;;;;1.40;1.05;;;23.00;47.70;;;;;;5031545;28;20025;-64
2023/05/28 05:32:03;;;;;;;1.88;1.13;;;23.00;47.70;;;;;;5032880;28;20047;-64
2023/05/28 05:34:28;;;;;;;1.83;1.30;;;23.00;47.70;;;;;;5035355;28;20026;-63
2023/05/28 05:36:54;;;;;;;1.50;1.15;;;23.00;47.70;;;;;;5038251;28;20068;-64
2023/05/28 05:39:20;;;;;;;1.63;0.98;;;23.00;47.70;;;;;;5034687;28;20041;-65
2023/05/28 05:41:46;;;;;;;1.80;1.15;;;23.00;47.70;;;;;;5031215;28;20021;-64
2023/05/28 05:44:12;;;;;;;1.52;1.17;;;23.00;47.70;;;;;;5033203;28;20091;-64
2023/05/28 05:46:37;;;;;;;1.65;1.20;;;23.00;47.70;;;;;;5036503;28;20491;-64
2023/05/28 05:49:03;;;;;;;2.17;1.23;;;23.00;47.70;;;;;;5034468;28;20543;-64
2023/05/28 05:51:29;;;;;;;1.30;1.00;;;23.00;47.70;;;;;;5036083;28;20100;-63
2023/05/28 05:53:54;;;;;;;1.60;1.10;;;23.00;47.70;;;;;;5036131;28;20411;-64
2023/05/28 05:56:20;;;;;;;1.35;0.90;;;23.00;47.70;;;;;;5036331;28;20350;-64
2023/05/28 05:58:45;;;;;;;1.25;1.00;;;23.00;47.70;;;;;;5037766;28;20469;-64
2023/05/28 06:01:16;;;;;;;1.50;1.10;;;23.00;47.70;;;;;;5040742;28;20024;-64
2023/05/28 06:03:41;;;;;;;1.67;1.10;;;23.00;47.80;;;;;;5036138;28;20024;-63
2023/05/28 06:06:07;;;;;;;2.33;1.10;;;23.00;47.80;;;;;;5039955;28;20022;-64
2023/05/28 06:08:33;;;;;;;1.73;1.10;;;23.00;47.80;;;;;;5041393;28;20033;-63
2023/05/28 06:10:59;;;;;;;1.48;1.08;;;23.00;47.80;;;;;;5040961;28;20020;-64
2023/05/28 06:13:25;;;;;;;1.42;0.95;;;23.00;47.80;;;;;;5037312;28;20021;-63
2023/05/28 06:15:51;;;;;;;1.48;1.17;;;23.00;47.80;;;;;;5040237;28;20554;-64
2023/05/28 06:18:17;;;;;;;2.13;1.13;;;23.00;47.80;;;;;;5038126;28;20136;-64
2023/05/28 06:20:42;;;;;;;1.35;1.02;;;23.00;47.80;;;;;;5039035;28;20057;-64
2023/05/28 06:23:08;;;;;;;1.75;1.15;;;23.00;47.80;;;;;;5036244;28;20428;-64
2023/05/28 06:25:35;;;;;;;1.50;1.10;;;22.90;47.80;;;;;;5042959;28;20021;-64
2023/05/28 06:28:01;;;;;;;1.60;1.10;;;23.00;47.90;;;;;;5035462;28;20701;-61
2023/05/28 06:30:27;;;;;;;1.48;1.10;;;22.90;47.80;;;;;;5039636;28;20033;-64
2023/05/28 06:32:52;;;;;;;1.80;1.10;;;22.90;47.80;;;;;;5043365;28;20037;-64
2023/05/28 06:35:18;;;;;;;1.50;1.00;;;22.90;47.80;;;;;;5040567;28;20026;-64
2023/05/28 06:37:43;;;;;;;1.80;1.00;;;22.90;47.80;;;;;;5038334;28;20079;-64
2023/05/28 06:40:10;;;;;;;2.20;1.10;;;22.90;47.80;;;;;;5039112;28;20033;-64
2023/05/28 06:42:39;;;;;;;1.55;1.10;;;22.90;47.80;;;;;;5038304;28;20141;-65
2023/05/28 06:45:05;;;;;;;1.83;1.10;;;22.90;47.90;;;;;;5037118;28;20033;-64
2023/05/28 06:47:31;;;;;;;1.33;1.00;;;22.90;47.90;;;;;;5039062;28;20117;-64
2023/05/28 06:49:56;;;;;;;1.50;1.00;;;22.90;48.40;;;;;;5039621;28;20112;-64
2023/05/28 06:52:23;;;;;;;1.40;1.10;;;22.90;47.90;;;;;;5039155;28;20032;-63
2023/05/28 06:54:49;;;;;;;1.30;1.00;;;22.90;47.90;;;;;;5038178;28;20032;-64
2023/05/28 06:57:15;;;;;;;1.50;1.00;;;22.90;47.90;;;;;;5036224;28;20112;-63
2023/05/28 06:59:41;;;;;;;1.60;1.00;;;22.90;47.90;;;;;;5037135;28;20032;-64
2023/05/28 07:02:06;;;;;;;1.35;1.00;;;22.90;48.00;;;;;;5040665;28;20032;-64
2023/05/28 07:04:32;;;;;;;1.27;0.95;;;22.90;48.00;;;;;;5036307;28;20052;-63
2023/05/28 07:06:58;;;;;;;1.10;0.93;;;22.90;48.00;;;;;;5037472;28;20112;-64
2023/05/28 07:09:23;;;;;;;1.35;1.10;;;22.90;48.00;;;;;;5036522;28;20041;-64
2023/05/28 07:11:49;;;;;;;1.48;1.02;;;22.90;48.00;;;;;;5039276;28;20179;-64
2023/05/28 07:14:14;;;;;;;1.40;1.00;;;22.90;48.00;;;;;;5034228;28;20060;-64
2023/05/28 07:16:41;;;;;;;1.27;0.90;;;22.90;48.00;;;;;;5040439;28;20104;-64
2023/05/28 07:19:06;;;;;;;1.02;0.93;;;22.90;48.10;;;;;;5034366;28;20441;-64
2023/05/28 07:21:32;;;;;;;1.02;0.77;;;22.90;48.10;;;;;;5036360;28;20128;-64
2023/05/28 07:23:58;;;;;;;1.55;1.05;;;22.90;48.10;;;;;;5039417;28;20024;-64
2023/05/28 07:26:25;;;;;;;1.20;0.95;;;22.90;48.10;;;;;;5036382;28;20040;-64
2023/05/28 07:28:50;;;;;;;1.80;1.05;;;22.90;48.10;;;;;;5035359;28;20519;-64
2023/05/28 07:31:16;;;;;;;1.83;1.15;;;22.90;48.10;;;;;;5038388;28;20049;-64
2023/05/28 07:33:42;;;;;;;1.58;0.98;;;22.90;48.10;;;;;;5021900;28;20116;-64
2023/05/28 07:36:08;;;;;;;1.77;1.10;;;22.90;48.10;;;;;;5036655;28;20038;-64
2023/05/28 07:38:34;;;;;;;1.08;0.90;;;22.90;48.10;;;;;;5038243;28;20025;-64
2023/05/28 07:41:00;;;;;;;1.00;0.90;;;22.90;48.10;;;;;;5020934;28;20021;-64
2023/05/28 07:43:25;;;;;;;1.20;0.90;;;22.90;48.10;;;;;;5037771;28;20210;-64
2023/05/28 07:45:51;;;;;;;1.63;1.00;;;22.80;48.10;;;;;;5038474;28;20471;-64
2023/05/28 07:48:17;;;;;;;1.20;1.00;;;22.80;48.00;;;;;;5037773;28;20021;-64
2023/05/28 07:50:43;;;;;;;1.40;0.90;;;22.90;48.10;;;;;;5037145;28;20170;-64
2023/05/28 07:53:08;;;;;;;2.05;1.20;;;22.80;48.10;;;;;;5033843;28;20030;-64
2023/05/28 07:55:34;;;;;;;1.50;0.90;;;22.80;48.10;;;;;;5034707;28;20046;-63
2023/05/28 07:58:00;;;;;;;1.48;1.00;;;22.80;48.10;;;;;;5034925;28;20050;-64
2023/05/28 08:00:26;;;;;;;1.38;1.00;;;22.80;48.10;;;;;;5035877;28;20021;-64
2023/05/28 08:02:52;;;;;;;1.02;0.90;;;22.80;48.10;;;;;;5036263;28;20033;-64
2023/05/28 08:05:18;;;;;;;1.00;0.80;;;22.80;48.10;;;;;;5037183;28;20033;-64
2023/05/28 08:07:44;;;;;;;1.83;1.00;;;22.80;48.10;;;;;;5036671;28;20108;-64
2023/05/28 08:10:10;;;;;;;1.60;1.13;;;22.80;48.20;;;;;;5037692;28;20026;-64
2023/05/28 08:12:36;;;;;;;1.55;1.00;;;22.80;48.10;;;;;;5037575;28;20071;-63
2023/05/28 08:15:02;;;;;;;1.80;1.10;;;22.80;48.10;;;;;;5032030;28;20030;-64
2023/05/28 08:17:31;;;;;;;1.48;1.10;;;22.80;48.20;;;;;;5019812;28;20112;-63
2023/05/28 08:19:57;;;;;;;1.55;1.08;;;22.80;48.20;;;;;;5036170;28;20029;-63
2023/05/28 08:22:23;;;;;;;1.55;1.00;;;22.80;48.20;;;;;;5038137;28;20090;-63
2023/05/28 08:24:48;;;;;;;1.10;0.98;;;22.80;48.20;;;;;;5021961;28;20404;-64
2023/05/28 08:27:14;;;;;;;1.40;1.00;;;22.80;48.70;;;;;;5018989;28;20131;-63
2023/05/28 08:29:40;;;;;;;1.52;1.08;;;22.80;48.20;;;;;;5035502;28;20021;-63
2023/05/28 08:32:06;;;;;;;2.03;1.20;;;22.80;48.20;;;;;;5037654;28;20021;-63
2023/05/28 08:34:34;;;;;;;1.98;1.20;;;22.80;48.20;;;;;;5036712;28;20519;-63
2023/05/28 08:37:00;;;;;;;1.92;1.25;;;22.80;48.30;;;;;;5034154;28;20021;-63
2023/05/28 08:39:26;;;;;;;1.80;1.15;;;22.80;48.30;;;;;;5036106;28;20034;-63
2023/05/28 08:41:53;;;;;;;1.77;1.10;;;22.80;48.30;;;;;;5033063;28;20028;-63
2023/05/28 08:44:19;;;;;;;2.20;1.40;;;22.80;48.30;;;;;;5034901;28;20040;-63
2023/05/28 08:46:45;;;;;;;2.00;1.13;;;22.80;48.30;;;;;;5039626;28;20036;-63
2023/05/28 08:49:14;;;;;;;1.48;1.00;;;22.80;48.30;;;;;;5034396;28;20029;-63
2023/05/28 08:51:42;;;;;;;2.28;1.30;;;22.80;48.30;;;;;;5038709;28;20029;-63
2023/05/28 08:54:08;;;;;;;1.80;1.10;;;22.80;48.30;;;;;;5031353;28;20424;-63
2023/05/28 08:56:34;;;;;;;2.10;1.40;;;22.80;48.30;;;;;;5033168;28;20102;-63
2023/05/28 08:59:01;;;;;;;2.10;1.20;;;22.80;48.30;;;;;;5033930;28;20104;-63
2023/05/28 09:01:27;;;;;;;2.58;1.30;;;22.80;48.30;;;;;;5033941;28;20579;-63
2023/05/28 09:03:53;;;;;;;2.33;1.30;;;22.80;48.30;;;;;;5035386;28;20036;-63
2023/05/28 09:06:20;;;;;;;1.65;1.20;;;22.80;48.30;;;;;;5035742;28;20033;-63
2023/05/28 09:08:46;;;;;;;1.83;1.35;;;22.80;48.30;;;;;;5035215;28;20030;-63
2023/05/28 09:11:13;;;;;;;2.58;1.40;;;22.80;48.30;;;;;;5035687;28;20116;-63
2023/05/28 09:13:44;;;;;;;2.35;1.40;;;22.80;48.30;;;;;;5033932;28;20028;-63
2023/05/28 09:16:10;;;;;;;1.83;1.20;;;22.80;48.30;;;;;;5018090;28;20123;-63
2023/05/28 09:18:36;;;;;;;1.60;1.20;;;22.80;48.30;;;;;;5035351;28;20530;-63
2023/05/28 09:21:07;;;;;;;2.50;1.33;;;22.80;48.30;;;;;;5016860;28;20082;-64
2023/05/28 09:23:34;;;;;;;2.42;1.30;;;22.80;48.30;;;;;;5034714;28;20025;-63
2023/05/28 09:26:02;;;;;;;3.10;1.23;;;22.80;48.30;;;;;;5031726;28;20064;-63
2023/05/28 09:28:28;;;;;;;2.50;1.63;;;22.90;48.30;;;;;;5036349;28;20105;-64
2023/05/28 09:31:05;;;;;;;2.15;1.30;;;22.90;48.30;;;;;;5032385;28;20111;-63
2023/05/28 09:33:32;;;;;;;2.13;1.23;;;22.90;48.30;;;;;;5003610;28;20029;-63
2023/05/28 09:35:59;;;;;;;2.55;1.40;;;22.90;48.30;;;;;;5036129;28;20500;-63
2023/05/28 09:38:26;;;;;;;2.38;1.52;;;22.90;48.30;;;;;;5033442;28;20044;-63
2023/05/28 09:40:55;;;;;;;2.53;1.50;;;22.90;48.30;;;;;;5032910;28;20033;-63
2023/05/28 09:43:30;;;;;;;2.20;1.20;;;22.80;48.20;;;;;;5039278;28;20029;-63
2023/05/28 09:46:09;;;;;;;2.60;1.60;;;22.90;48.30;;;;;;5036746;28;20076;-63
2023/05/28 09:48:34;;;;;;;2.60;1.50;;;22.90;48.30;;;;;;5035509;28;20024;-63
2023/05/28 09:51:04;;;;;;;1.90;1.30;;;22.90;48.30;;;;;;5036198;28;20281;-63
2023/05/28 09:53:33;;;;;;;2.40;1.63;;;22.90;48.20;;;;;;5034511;28;20559;-64
2023/05/28 09:56:02;;;;;;;2.50;1.45;;;22.90;48.20;;;;;;5002960;28;20052;-63
2023/05/28 09:58:34;;;;;;;2.60;1.67;;;22.90;48.10;;;;;;5034952;28;20026;-64
2023/05/28 10:01:03;;;;;;;2.58;1.70;;;22.90;48.10;;;;;;4999938;28;20281;-63
2023/05/28 10:03:36;;;;;;;;;;;22.90;48.10;;;;;;5032690;28;20037;-63
2023/05/28 10:06:11;;;;;;;2.72;1.50;;;22.90;48.10;;;;;;5035847;28;20422;-63
2023/05/28 10:08:37;;;;;;;2.30;1.33;;;22.90;48.10;;;;;;5033412;28;20536;-64
2023/05/28 10:11:15;;;;;;;2.65;1.55;;;22.90;48.10;;;;;;5036600;28;20026;-63
2023/05/28 10:13:41;;;;;;;2.47;1.48;;;22.90;48.20;;;;;;5036873;28;20082;-63
2023/05/28 10:16:07;;;;;;;2.53;1.52;;;22.90;48.20;;;;;;5033576;28;20125;-63
2023/05/28 10:18:35;;;;;;;2.63;1.40;;;22.90;48.10;;;;;;5002655;28;20033;-64
2023/05/28 10:21:01;;;;;;;2.50;1.30;;;22.90;48.10;;;;;;5020045;28;20102;-62
2023/05/28 10:23:28;;;;;;;2.58;1.45;;;22.90;48.00;;;;;;5035237;28;20033;-63
2023/05/28 10:25:54;;;;;;;3.28;1.67;;;22.90;47.90;;;;;;5032274;28;20124;-63
2023/05/28 10:28:21;;;;;;;3.78;1.60;;;22.90;47.90;;;;;;5037591;28;20021;-63
2023/05/28 10:31:02;;;;;;;3.25;1.60;;;22.90;47.90;;;;;;5033353;28;20033;-63
2023/05/28 10:33:27;;;;;;;2.50;1.40;;;22.90;47.90;;;;;;5019802;28;20108;-63
2023/05/28 10:35:55;;;;;;;3.08;1.73;;;22.90;47.80;;;;;;5015877;28;20540;-61
2023/05/28 10:38:21;;;;;;;2.30;1.55;;;22.90;47.70;;;;;;5036285;28;20125;-61
2023/05/28 10:40:48;;;;;;;2.67;1.60;;;22.90;47.60;;;;;;5030513;28;20081;-63
2023/05/28 10:43:38;;;;;;;2.85;1.75;;;23.00;47.50;;;;;;5036628;28;20033;-63
2023/05/28 10:46:11;;;;;;;2.72;1.70;;;22.90;47.50;;;;;;5036900;28;20017;-63
2023/05/28 10:48:41;;;;;;;2.45;1.42;;;23.00;47.50;;;;;;5038357;28;20040;-63
2023/05/28 10:51:07;;;;;;;1.80;1.23;;;23.00;47.40;;;;;;5007667;28;20115;-63
2023/05/28 10:53:33;;;;;;;2.38;1.50;;;23.00;47.80;;;;;;5040202;28;20398;-62
2023/05/28 10:56:01;;;;;;;3.10;1.70;;;23.00;47.10;;;;;;5039570;28;20385;-63
2023/05/28 10:58:38;;;;;;;4.22;1.85;;;23.00;46.70;;;;;;5036719;28;20069;-62
2023/05/28 11:01:10;;;;;;;3.63;1.77;;;23.00;46.50;;;;;;5003446;28;20427;-63
2023/05/28 11:03:51;;;;;;;3.72;2.00;;;23.00;46.30;;;;;;5034573;28;20029;-63
2023/05/28 11:06:17;;;;;;;3.53;2.22;;;23.00;46.10;;;;;;5032501;28;20029;-63
2023/05/28 11:08:48;;;;;;;3.45;1.80;;;23.00;46.30;;;;;;5038050;28;20503;-64
2023/05/28 11:11:15;;;;;;;3.75;2.20;;;23.10;46.20;;;;;;5037992;28;20483;-63
2023/05/28 11:13:46;;;;;;;4.90;2.30;;;23.10;46.10;;;;;;5035332;28;20032;-64
2023/05/28 11:16:14;;;;;;;4.07;2.08;;;23.10;46.10;;;;;;5032767;28;20473;-64
2023/05/28 11:18:58;;;;;;;3.30;2.00;;;23.10;46.00;;;;;;5035346;28;20730;-63
2023/05/28 11:21:24;;;;;;;4.13;2.00;;;23.10;45.90;;;;;;5037508;28;20707;-63
2023/05/28 11:24:03;;;;;;;3.50;2.13;;;23.10;45.70;;;;;;5039555;28;20029;-62
2023/05/28 11:26:30;;;;;;;3.95;2.08;;;23.20;45.60;;;;;;5035087;28;20022;-64
2023/05/28 11:28:55;;;;;;;3.42;2.00;;;23.20;45.60;;;;;;5034825;28;20033;-63
2023/05/28 11:31:21;;;;;;;3.65;2.00;;;23.20;45.60;;;;;;5036918;28;20098;-62
2023/05/28 11:33:50;;;;;;;3.85;2.15;;;23.20;45.50;;;;;;5036160;28;20071;-64
2023/05/28 11:36:18;;;;;;;3.33;2.10;;;23.30;45.70;;;;;;5034177;28;20045;-63
2023/05/28 11:38:43;;;;;;;4.28;2.13;;;23.30;45.80;;;;;;5038966;28;20029;-63
2023/05/28 11:41:09;;;;;;;3.78;2.05;;;23.30;45.70;;;;;;5020279;28;20660;-63
2023/05/28 11:43:35;;;;;;;4.32;2.40;;;23.30;45.70;;;;;;5020098;28;20069;-63
2023/05/28 11:46:01;;;;;;;3.45;2.10;;;23.30;45.50;;;;;;5034348;28;20091;-63
2023/05/28 11:48:27;;;;;;;3.97;2.03;;;23.40;45.50;;;;;;5018812;28;20029;-63
2023/05/28 11:51:00;;;;;;;3.92;2.00;;;23.40;45.40;;;;;;5037031;28;20867;-63
2023/05/28 11:53:38;;;;;;;4.30;2.10;;;23.40;45.40;;;;;;5035808;28;20387;-63
2023/05/28 11:56:05;;;;;;;3.00;1.98;;;23.40;45.30;;;;;;5004198;28;20116;-63
2023/05/28 11:58:31;;;;;;;4.00;2.30;;;23.40;45.40;;;;;;5034709;28;20033;-62
2023/05/28 12:00:57;;;;;;;2.92;2.00;;;23.40;45.30;;;;;;5034005;28;20044;-62
2023/05/28 12:03:25;;;;;;;3.33;1.98;;;23.50;45.40;;;;;;5036409;28;20124;-67
2023/05/28 12:05:51;;;;;;;3.85;2.00;;;23.50;45.30;;;;;;5036528;28;20060;-66
2023/05/28 12:08:20;;;;;;;3.47;2.30;;;23.50;45.20;;;;;;5034463;28;20061;-67
2023/05/28 12:10:46;;;;;;;3.22;2.03;;;23.50;45.10;;;;;;5036074;28;20044;-67
2023/05/28 12:13:15;;;;;;;3.25;2.05;;;23.50;44.90;;;;;;5037793;28;20403;-67
2023/05/28 12:15:41;;;;;;;3.92;2.10;;;23.50;44.50;;;;;;5035054;28;20579;-67
2023/05/28 12:18:07;;;;;;;3.13;2.10;;;23.50;44.30;;;;;;5034711;28;20515;-66
2023/05/28 12:20:34;;;;;;;4.40;1.92;;;23.60;44.30;;;;;;5020771;28;20117;-67
2023/05/28 12:23:07;;;;;;;3.58;2.30;;;23.60;44.10;;;;;;5032574;28;20056;-67
2023/05/28 12:25:42;;;;;;;3.90;2.40;;;23.60;43.50;;;;;;5036706;28;20498;-67
2023/05/28 12:28:07;;;;;;;5.35;2.28;;;23.60;42.70;;;;;;5034352;28;20025;-66
2023/05/28 12:30:33;;;;;;;3.65;2.13;;;23.60;42.40;;;;;;5034079;28;20319;-67
2023/05/28 12:32:59;;;;;;;3.78;2.38;;;23.60;41.90;;;;;;5020599;28;20033;-67
2023/05/28 12:35:24;;;;;;;3.72;2.20;;;23.60;41.20;;;;;;5036000;28;20036;-66
2023/05/28 12:37:50;;;;;;;3.78;2.60;;;23.60;41.00;;;;;;5033362;28;20049;-65
2023/05/28 12:40:15;;;;;;;3.90;2.55;;;23.70;40.70;;;;;;5039047;28;20483;-67
2023/05/28 12:42:41;;;;;;;5.72;2.53;;;23.60;40.80;;;;;;5004680;28;20037;-67
2023/05/28 12:45:07;;;;;;;3.38;2.30;;;23.70;40.50;;;;;;5034004;28;20048;-66